sensor_id;sensor_type;location;lat;lon;timestamp;pressure;altitude;pressure_sealevel;temperature
74539;BMP180;66042;51.090;-115.340;2023-02-15T00:02:01;86317.80;;;-1.00
74539;BMP180;66042;51.090;-115.340;2023-02-15T00:04:29;86318.40;;;-1.20
74539;BMP180;66042;51.090;-115.340;2023-02-15T00:07:16;86322.40;;;-1.30
74539;BMP180;66042;51.090;-115.340;2023-02-15T00:09:46;86322.80;;;-1.40
74539;BMP180;66042;51.090;-115.340;2023-02-15T00:12:13;86324.60;;;-1.50
74539;BMP180;66042;51.090;-115.340;2023-02-15T00:14:41;86326.40;;;-1.60
74539;BMP180;66042;51.090;-115.340;2023-02-15T00:17:08;86327.80;;;-1.70
74539;BMP180;66042;51.090;-115.340;2023-02-15T00:19:35;86332.00;;;-1.78
74539;BMP180;66042;51.090;-115.340;2023-02-15T00:22:02;86336.00;;;-1.82
74539;BMP180;66042;51.090;-115.340;2023-02-15T00:24:29;86338.20;;;-1.90
74539;BMP180;66042;51.090;-115.340;2023-02-15T00:26:57;86339.00;;;-1.94
74539;BMP180;66042;51.090;-115.340;2023-02-15T00:29:24;86338.80;;;-2.10
74539;BMP180;66042;51.090;-115.340;2023-02-15T00:31:51;86330.20;;;-2.20
74539;BMP180;66042;51.090;-115.340;2023-02-15T00:34:22;86332.00;;;-2.20
74539;BMP180;66042;51.090;-115.340;2023-02-15T00:36:50;86328.20;;;-2.30
74539;BMP180;66042;51.090;-115.340;2023-02-15T00:39:18;86326.60;;;-2.40
74539;BMP180;66042;51.090;-115.340;2023-02-15T00:41:46;86330.80;;;-2.50
74539;BMP180;66042;51.090;-115.340;2023-02-15T00:44:14;86335.60;;;-2.60
74539;BMP180;66042;51.090;-115.340;2023-02-15T00:46:42;86340.00;;;-2.70
74539;BMP180;66042;51.090;-115.340;2023-02-15T00:49:09;86331.60;;;-2.80
74539;BMP180;66042;51.090;-115.340;2023-02-15T00:51:36;86339.00;;;-2.90
74539;BMP180;66042;51.090;-115.340;2023-02-15T00:54:04;86340.80;;;-3.00
74539;BMP180;66042;51.090;-115.340;2023-02-15T00:56:30;86343.20;;;-3.10
74539;BMP180;66042;51.090;-115.340;2023-02-15T00:58:58;86341.80;;;-3.20
74539;BMP180;66042;51.090;-115.340;2023-02-15T01:01:25;86343.60;;;-3.30
74539;BMP180;66042;51.090;-115.340;2023-02-15T01:03:52;86342.40;;;-3.36
74539;BMP180;66042;51.090;-115.340;2023-02-15T01:06:19;86345.00;;;-3.48
74539;BMP180;66042;51.090;-115.340;2023-02-15T01:08:46;86345.20;;;-3.50
74539;BMP180;66042;51.090;-115.340;2023-02-15T01:11:17;86346.20;;;-3.60
74539;BMP180;66042;51.090;-115.340;2023-02-15T01:13:54;86349.80;;;-3.70
74539;BMP180;66042;51.090;-115.340;2023-02-15T01:16:24;86356.20;;;-3.80
74539;BMP180;66042;51.090;-115.340;2023-02-15T01:18:51;86358.00;;;-3.80
74539;BMP180;66042;51.090;-115.340;2023-02-15T01:21:22;86358.20;;;-3.90
74539;BMP180;66042;51.090;-115.340;2023-02-15T01:23:49;86356.00;;;-3.90
74539;BMP180;66042;51.090;-115.340;2023-02-15T01:26:17;86364.80;;;-4.00
74539;BMP180;66042;51.090;-115.340;2023-02-15T01:28:45;86365.80;;;-4.00
74539;BMP180;66042;51.090;-115.340;2023-02-15T01:31:16;86364.60;;;-4.10
74539;BMP180;66042;51.090;-115.340;2023-02-15T01:33:44;86368.40;;;-4.10
74539;BMP180;66042;51.090;-115.340;2023-02-15T01:36:11;86372.60;;;-4.10
74539;BMP180;66042;51.090;-115.340;2023-02-15T01:38:38;86372.40;;;-4.20
74539;BMP180;66042;51.090;-115.340;2023-02-15T01:41:09;86371.80;;;-4.20
74539;BMP180;66042;51.090;-115.340;2023-02-15T01:43:59;86368.80;;;-4.24
74539;BMP180;66042;51.090;-115.340;2023-02-15T01:46:37;86374.20;;;-4.30
74539;BMP180;66042;51.090;-115.340;2023-02-15T01:49:21;86374.60;;;-4.40
74539;BMP180;66042;51.090;-115.340;2023-02-15T01:51:51;86378.20;;;-4.40
74539;BMP180;66042;51.090;-115.340;2023-02-15T01:54:34;86370.00;;;-4.40
74539;BMP180;66042;51.090;-115.340;2023-02-15T01:57:10;86377.60;;;-4.50
74539;BMP180;66042;51.090;-115.340;2023-02-15T01:59:43;86379.40;;;-4.50
74539;BMP180;66042;51.090;-115.340;2023-02-15T02:02:15;86383.00;;;-4.54
74539;BMP180;66042;51.090;-115.340;2023-02-15T02:04:57;86381.00;;;-4.60
74539;BMP180;66042;51.090;-115.340;2023-02-15T02:07:29;86379.00;;;-4.62
74539;BMP180;66042;51.090;-115.340;2023-02-15T02:09:57;86382.80;;;-4.70
74539;BMP180;66042;51.090;-115.340;2023-02-15T02:12:26;86384.20;;;-4.70
74539;BMP180;66042;51.090;-115.340;2023-02-15T02:14:54;86383.00;;;-4.80
74539;BMP180;66042;51.090;-115.340;2023-02-15T02:23:48;86373.40;;;-4.90
74539;BMP180;66042;51.090;-115.340;2023-02-15T02:47:42;86380.00;;;-5.20
74539;BMP180;66042;51.090;-115.340;2023-02-15T02:50:26;86377.80;;;-5.20
74539;BMP180;66042;51.090;-115.340;2023-02-15T02:52:56;86383.20;;;-5.30
74539;BMP180;66042;51.090;-115.340;2023-02-15T03:01:13;86372.80;;;-5.20
74539;BMP180;66042;51.090;-115.340;2023-02-15T03:03:49;86373.60;;;-5.20
74539;BMP180;66042;51.090;-115.340;2023-02-15T03:06:48;86375.20;;;-5.10
74539;BMP180;66042;51.090;-115.340;2023-02-15T03:09:36;86378.80;;;-5.10
74539;BMP180;66042;51.090;-115.340;2023-02-15T03:12:30;86376.40;;;-5.06
74539;BMP180;66042;51.090;-115.340;2023-02-15T03:17:43;86382.20;;;-5.02
74539;BMP180;66042;51.090;-115.340;2023-02-15T03:20:26;86390.00;;;-5.00
74539;BMP180;66042;51.090;-115.340;2023-02-15T03:23:02;86383.40;;;-5.10
74539;BMP180;66042;51.090;-115.340;2023-02-15T03:25:34;86382.60;;;-5.20
74539;BMP180;66042;51.090;-115.340;2023-02-15T03:28:14;86378.20;;;-5.38
74539;BMP180;66042;51.090;-115.340;2023-02-15T03:30:47;86375.00;;;-5.42
74539;BMP180;66042;51.090;-115.340;2023-02-15T03:33:28;86382.00;;;-5.40
74539;BMP180;66042;51.090;-115.340;2023-02-15T03:36:11;86388.60;;;-5.50
74539;BMP180;66042;51.090;-115.340;2023-02-15T03:39:10;86391.60;;;-5.50
74539;BMP180;66042;51.090;-115.340;2023-02-15T03:42:46;86393.40;;;-5.60
74539;BMP180;66042;51.090;-115.340;2023-02-15T03:47:27;86397.40;;;-5.70
74539;BMP180;66042;51.090;-115.340;2023-02-15T03:52:29;86394.20;;;-5.90
74539;BMP180;66042;51.090;-115.340;2023-02-15T03:54:59;86400.80;;;-6.00
74539;BMP180;66042;51.090;-115.340;2023-02-15T03:57:28;86403.60;;;-6.10
74539;BMP180;66042;51.090;-115.340;2023-02-15T04:00:23;86398.00;;;-6.10
74539;BMP180;66042;51.090;-115.340;2023-02-15T04:03:57;86403.20;;;-6.18
74539;BMP180;66042;51.090;-115.340;2023-02-15T04:06:26;86400.80;;;-6.28
74539;BMP180;66042;51.090;-115.340;2023-02-15T04:08:53;86401.60;;;-6.30
74539;BMP180;66042;51.090;-115.340;2023-02-15T04:11:38;86407.80;;;-6.32
74539;BMP180;66042;51.090;-115.340;2023-02-15T04:14:05;86409.60;;;-6.48
74539;BMP180;66042;51.090;-115.340;2023-02-15T04:16:52;86406.20;;;-6.50
74539;BMP180;66042;51.090;-115.340;2023-02-15T04:19:19;86411.80;;;-6.50
74539;BMP180;66042;51.090;-115.340;2023-02-15T04:22:05;86411.20;;;-6.60
74539;BMP180;66042;51.090;-115.340;2023-02-15T04:24:50;86409.80;;;-6.50
74539;BMP180;66042;51.090;-115.340;2023-02-15T04:27:36;86411.00;;;-6.40
74539;BMP180;66042;51.090;-115.340;2023-02-15T04:30:05;86413.60;;;-6.50
74539;BMP180;66042;51.090;-115.340;2023-02-15T04:32:33;86421.60;;;-6.56
74539;BMP180;66042;51.090;-115.340;2023-02-15T04:35:01;86419.20;;;-6.46
74539;BMP180;66042;51.090;-115.340;2023-02-15T04:37:28;86414.60;;;-6.48
74539;BMP180;66042;51.090;-115.340;2023-02-15T04:39:55;86429.00;;;-6.50
74539;BMP180;66042;51.090;-115.340;2023-02-15T04:42:27;86428.20;;;-6.58
74539;BMP180;66042;51.090;-115.340;2023-02-15T04:44:54;86417.00;;;-6.50
74539;BMP180;66042;51.090;-115.340;2023-02-15T04:47:22;86418.00;;;-6.32
74539;BMP180;66042;51.090;-115.340;2023-02-15T04:49:48;86426.40;;;-6.30
74539;BMP180;66042;51.090;-115.340;2023-02-15T04:52:16;86428.60;;;-6.30
74539;BMP180;66042;51.090;-115.340;2023-02-15T04:54:46;86425.60;;;-6.50
74539;BMP180;66042;51.090;-115.340;2023-02-15T04:57:13;86431.20;;;-6.40
74539;BMP180;66042;51.090;-115.340;2023-02-15T04:59:41;86431.00;;;-6.40
74539;BMP180;66042;51.090;-115.340;2023-02-15T05:02:07;86422.20;;;-6.40
74539;BMP180;66042;51.090;-115.340;2023-02-15T05:04:35;86423.00;;;-6.30
74539;BMP180;66042;51.090;-115.340;2023-02-15T05:07:02;86413.80;;;-6.30
74539;BMP180;66042;51.090;-115.340;2023-02-15T05:09:29;86420.20;;;-6.30
74539;BMP180;66042;51.090;-115.340;2023-02-15T05:11:56;86420.20;;;-6.40
74539;BMP180;66042;51.090;-115.340;2023-02-15T05:14:23;86421.00;;;-6.40
74539;BMP180;66042;51.090;-115.340;2023-02-15T05:16:50;86423.40;;;-6.50
74539;BMP180;66042;51.090;-115.340;2023-02-15T05:19:17;86417.20;;;-6.70
74539;BMP180;66042;51.090;-115.340;2023-02-15T05:21:44;86417.00;;;-6.90
74539;BMP180;66042;51.090;-115.340;2023-02-15T05:24:11;86420.40;;;-7.00
74539;BMP180;66042;51.090;-115.340;2023-02-15T05:26:56;86422.20;;;-6.90
74539;BMP180;66042;51.090;-115.340;2023-02-15T05:29:41;86427.80;;;-6.92
74539;BMP180;66042;51.090;-115.340;2023-02-15T05:32:09;86426.80;;;-6.96
74539;BMP180;66042;51.090;-115.340;2023-02-15T05:34:37;86422.80;;;-7.10
74539;BMP180;66042;51.090;-115.340;2023-02-15T05:37:04;86416.80;;;-7.30
74539;BMP180;66042;51.090;-115.340;2023-02-15T05:39:31;86416.40;;;-7.20
74539;BMP180;66042;51.090;-115.340;2023-02-15T05:42:01;86421.00;;;-7.16
74539;BMP180;66042;51.090;-115.340;2023-02-15T05:44:28;86421.80;;;-7.30
74539;BMP180;66042;51.090;-115.340;2023-02-15T05:46:55;86421.20;;;-7.26
74539;BMP180;66042;51.090;-115.340;2023-02-15T05:49:22;86425.40;;;-7.30
74539;BMP180;66042;51.090;-115.340;2023-02-15T05:51:49;86423.60;;;-7.30
74539;BMP180;66042;51.090;-115.340;2023-02-15T05:54:16;86429.20;;;-7.30
74539;BMP180;66042;51.090;-115.340;2023-02-15T05:56:43;86425.40;;;-7.40
74539;BMP180;66042;51.090;-115.340;2023-02-15T05:59:10;86427.80;;;-7.30
74539;BMP180;66042;51.090;-115.340;2023-02-15T06:01:39;86426.80;;;-7.40
74539;BMP180;66042;51.090;-115.340;2023-02-15T06:04:06;86430.00;;;-7.50
74539;BMP180;66042;51.090;-115.340;2023-02-15T06:06:32;86432.20;;;-7.60
74539;BMP180;66042;51.090;-115.340;2023-02-15T06:09:01;86429.80;;;-7.60
74539;BMP180;66042;51.090;-115.340;2023-02-15T06:11:28;86427.40;;;-7.70
74539;BMP180;66042;51.090;-115.340;2023-02-15T06:13:55;86424.20;;;-7.88
74539;BMP180;66042;51.090;-115.340;2023-02-15T06:16:22;86429.80;;;-7.80
74539;BMP180;66042;51.090;-115.340;2023-02-15T06:18:49;86424.20;;;-7.80
74539;BMP180;66042;51.090;-115.340;2023-02-15T06:21:16;86422.00;;;-8.00
74539;BMP180;66042;51.090;-115.340;2023-02-15T06:23:43;86419.60;;;-8.00
74539;BMP180;66042;51.090;-115.340;2023-02-15T06:26:10;86430.20;;;-8.02
74539;BMP180;66042;51.090;-115.340;2023-02-15T06:28:37;86430.40;;;-8.14
74539;BMP180;66042;51.090;-115.340;2023-02-15T06:31:04;86428.40;;;-8.10
74539;BMP180;66042;51.090;-115.340;2023-02-15T06:33:31;86422.40;;;-8.00
74539;BMP180;66042;51.090;-115.340;2023-02-15T06:36:00;86419.40;;;-8.10
74539;BMP180;66042;51.090;-115.340;2023-02-15T06:38:28;86423.00;;;-8.14
74539;BMP180;66042;51.090;-115.340;2023-02-15T06:40:55;86431.40;;;-8.20
74539;BMP180;66042;51.090;-115.340;2023-02-15T06:43:21;86422.40;;;-8.26
74539;BMP180;66042;51.090;-115.340;2023-02-15T06:45:49;86418.20;;;-8.40
74539;BMP180;66042;51.090;-115.340;2023-02-15T06:48:16;86418.20;;;-8.40
74539;BMP180;66042;51.090;-115.340;2023-02-15T06:50:42;86418.40;;;-8.40
74539;BMP180;66042;51.090;-115.340;2023-02-15T06:53:09;86407.00;;;-8.40
74539;BMP180;66042;51.090;-115.340;2023-02-15T06:55:36;86413.40;;;-8.40
74539;BMP180;66042;51.090;-115.340;2023-02-15T06:58:03;86413.60;;;-8.20
74539;BMP180;66042;51.090;-115.340;2023-02-15T07:00:30;86417.20;;;-8.10
74539;BMP180;66042;51.090;-115.340;2023-02-15T07:02:59;86407.60;;;-8.18
74539;BMP180;66042;51.090;-115.340;2023-02-15T07:05:28;86414.00;;;-8.20
74539;BMP180;66042;51.090;-115.340;2023-02-15T07:07:58;86413.20;;;-8.20
74539;BMP180;66042;51.090;-115.340;2023-02-15T07:10:26;86403.00;;;-8.30
74539;BMP180;66042;51.090;-115.340;2023-02-15T07:12:53;86407.00;;;-8.40
74539;BMP180;66042;51.090;-115.340;2023-02-15T07:15:20;86413.40;;;-8.62
74539;BMP180;66042;51.090;-115.340;2023-02-15T07:17:48;86408.80;;;-8.72
74539;BMP180;66042;51.090;-115.340;2023-02-15T07:20:21;86410.00;;;-8.72
74539;BMP180;66042;51.090;-115.340;2023-02-15T07:22:49;86411.20;;;-8.80
74539;BMP180;66042;51.090;-115.340;2023-02-15T07:25:17;86408.60;;;-8.88
74539;BMP180;66042;51.090;-115.340;2023-02-15T07:27:44;86411.60;;;-8.82
74539;BMP180;66042;51.090;-115.340;2023-02-15T07:30:15;86411.40;;;-8.90
74539;BMP180;66042;51.090;-115.340;2023-02-15T07:32:43;86409.80;;;-8.94
74539;BMP180;66042;51.090;-115.340;2023-02-15T07:35:29;86412.80;;;-8.90
74539;BMP180;66042;51.090;-115.340;2023-02-15T07:37:55;86415.40;;;-8.90
74539;BMP180;66042;51.090;-115.340;2023-02-15T07:40:22;86413.00;;;-8.80
74539;BMP180;66042;51.090;-115.340;2023-02-15T07:42:50;86417.40;;;-8.80
74539;BMP180;66042;51.090;-115.340;2023-02-15T07:45:19;86412.80;;;-8.70
74539;BMP180;66042;51.090;-115.340;2023-02-15T07:47:46;86409.80;;;-8.70
74539;BMP180;66042;51.090;-115.340;2023-02-15T07:50:14;86420.00;;;-8.70
74539;BMP180;66042;51.090;-115.340;2023-02-15T07:52:41;86421.60;;;-8.80
74539;BMP180;66042;51.090;-115.340;2023-02-15T07:55:08;86416.20;;;-8.80
74539;BMP180;66042;51.090;-115.340;2023-02-15T07:57:35;86424.80;;;-8.80
74539;BMP180;66042;51.090;-115.340;2023-02-15T08:00:03;86419.60;;;-8.80
74539;BMP180;66042;51.090;-115.340;2023-02-15T08:02:31;86418.20;;;-8.80
74539;BMP180;66042;51.090;-115.340;2023-02-15T08:04:58;86419.80;;;-8.70
74539;BMP180;66042;51.090;-115.340;2023-02-15T08:07:25;86422.40;;;-8.62
74539;BMP180;66042;51.090;-115.340;2023-02-15T08:09:52;86431.00;;;-8.60
74539;BMP180;66042;51.090;-115.340;2023-02-15T08:12:19;86419.00;;;-8.54
74539;BMP180;66042;51.090;-115.340;2023-02-15T08:14:46;86419.80;;;-8.50
74539;BMP180;66042;51.090;-115.340;2023-02-15T08:17:14;86427.60;;;-8.50
74539;BMP180;66042;51.090;-115.340;2023-02-15T08:19:41;86425.20;;;-8.50
74539;BMP180;66042;51.090;-115.340;2023-02-15T08:22:13;86428.20;;;-8.50
74539;BMP180;66042;51.090;-115.340;2023-02-15T08:24:40;86430.40;;;-8.50
74539;BMP180;66042;51.090;-115.340;2023-02-15T08:27:10;86420.60;;;-8.50
74539;BMP180;66042;51.090;-115.340;2023-02-15T08:29:38;86421.20;;;-8.58
74539;BMP180;66042;51.090;-115.340;2023-02-15T08:32:09;86423.00;;;-8.60
74539;BMP180;66042;51.090;-115.340;2023-02-15T08:34:40;86426.80;;;-8.62
74539;BMP180;66042;51.090;-115.340;2023-02-15T08:37:08;86423.60;;;-8.60
74539;BMP180;66042;51.090;-115.340;2023-02-15T08:39:35;86424.20;;;-8.70
74539;BMP180;66042;51.090;-115.340;2023-02-15T08:42:03;86426.00;;;-8.70
74539;BMP180;66042;51.090;-115.340;2023-02-15T08:44:30;86427.40;;;-8.70
74539;BMP180;66042;51.090;-115.340;2023-02-15T08:46:57;86426.00;;;-8.70
74539;BMP180;66042;51.090;-115.340;2023-02-15T08:49:28;86425.40;;;-8.70
74539;BMP180;66042;51.090;-115.340;2023-02-15T08:51:56;86433.40;;;-8.80
74539;BMP180;66042;51.090;-115.340;2023-02-15T08:54:23;86433.80;;;-8.90
74539;BMP180;66042;51.090;-115.340;2023-02-15T08:56:50;86432.40;;;-8.86
74539;BMP180;66042;51.090;-115.340;2023-02-15T08:59:21;86431.20;;;-8.80
74539;BMP180;66042;51.090;-115.340;2023-02-15T09:01:50;86429.60;;;-8.80
74539;BMP180;66042;51.090;-115.340;2023-02-15T09:04:18;86429.60;;;-8.80
74539;BMP180;66042;51.090;-115.340;2023-02-15T09:06:47;86429.20;;;-8.80
74539;BMP180;66042;51.090;-115.340;2023-02-15T09:09:15;86431.20;;;-8.80
74539;BMP180;66042;51.090;-115.340;2023-02-15T09:11:46;86426.00;;;-8.80
74539;BMP180;66042;51.090;-115.340;2023-02-15T09:14:17;86429.00;;;-8.84
74539;BMP180;66042;51.090;-115.340;2023-02-15T09:16:47;86428.40;;;-8.90
74539;BMP180;66042;51.090;-115.340;2023-02-15T09:19:18;86423.60;;;-8.90
74539;BMP180;66042;51.090;-115.340;2023-02-15T09:21:46;86423.40;;;-8.90
74539;BMP180;66042;51.090;-115.340;2023-02-15T09:24:16;86425.60;;;-8.90
74539;BMP180;66042;51.090;-115.340;2023-02-15T09:26:47;86424.40;;;-8.92
74539;BMP180;66042;51.090;-115.340;2023-02-15T09:29:16;86418.00;;;-9.00
74539;BMP180;66042;51.090;-115.340;2023-02-15T09:31:49;86425.20;;;-8.94
74539;BMP180;66042;51.090;-115.340;2023-02-15T09:34:19;86424.20;;;-8.94
74539;BMP180;66042;51.090;-115.340;2023-02-15T09:36:47;86421.40;;;-9.00
74539;BMP180;66042;51.090;-115.340;2023-02-15T09:39:18;86421.60;;;-9.00
74539;BMP180;66042;51.090;-115.340;2023-02-15T09:48:40;86421.00;;;-9.06
74539;BMP180;66042;51.090;-115.340;2023-02-15T09:51:22;86425.80;;;-9.00
74539;BMP180;66042;51.090;-115.340;2023-02-15T09:54:07;86425.60;;;-9.02
74539;BMP180;66042;51.090;-115.340;2023-02-15T09:56:53;86434.00;;;-9.00
74539;BMP180;66042;51.090;-115.340;2023-02-15T10:00:02;86439.40;;;-9.00
74539;BMP180;66042;51.090;-115.340;2023-02-15T10:18:31;86441.40;;;-9.06
74539;BMP180;66042;51.090;-115.340;2023-02-15T10:27:15;86450.60;;;-9.20
74539;BMP180;66042;51.090;-115.340;2023-02-15T10:32:59;86441.00;;;-9.20
74539;BMP180;66042;51.090;-115.340;2023-02-15T10:35:52;86438.60;;;-9.20
74539;BMP180;66042;51.090;-115.340;2023-02-15T10:41:36;86443.00;;;-9.30
74539;BMP180;66042;51.090;-115.340;2023-02-15T10:47:55;86437.60;;;-9.20
74539;BMP180;66042;51.090;-115.340;2023-02-15T10:51:03;86436.80;;;-9.20
74539;BMP180;66042;51.090;-115.340;2023-02-15T11:00:02;86427.20;;;-9.30
74539;BMP180;66042;51.090;-115.340;2023-02-15T11:06:07;86432.00;;;-9.34
74539;BMP180;66042;51.090;-115.340;2023-02-15T11:08:55;86429.80;;;-9.30
74539;BMP180;66042;51.090;-115.340;2023-02-15T11:11:31;86431.00;;;-9.32
74539;BMP180;66042;51.090;-115.340;2023-02-15T11:14:35;86424.60;;;-9.34
74539;BMP180;66042;51.090;-115.340;2023-02-15T11:17:04;86422.60;;;-9.40
74539;BMP180;66042;51.090;-115.340;2023-02-15T11:19:45;86421.80;;;-9.40
74539;BMP180;66042;51.090;-115.340;2023-02-15T11:22:15;86426.40;;;-9.46
74539;BMP180;66042;51.090;-115.340;2023-02-15T11:24:45;86426.40;;;-9.40
74539;BMP180;66042;51.090;-115.340;2023-02-15T11:27:25;86420.20;;;-9.30
74539;BMP180;66042;51.090;-115.340;2023-02-15T11:30:14;86426.60;;;-9.38
74539;BMP180;66042;51.090;-115.340;2023-02-15T11:32:47;86428.00;;;-9.34
74539;BMP180;66042;51.090;-115.340;2023-02-15T11:35:46;86428.00;;;-9.40
74539;BMP180;66042;51.090;-115.340;2023-02-15T11:38:33;86427.60;;;-9.38
74539;BMP180;66042;51.090;-115.340;2023-02-15T11:41:13;86430.80;;;-9.32
74539;BMP180;66042;51.090;-115.340;2023-02-15T11:43:54;86427.80;;;-9.30
74539;BMP180;66042;51.090;-115.340;2023-02-15T11:46:23;86428.40;;;-9.36
74539;BMP180;66042;51.090;-115.340;2023-02-15T11:48:50;86421.20;;;-9.30
74539;BMP180;66042;51.090;-115.340;2023-02-15T11:51:22;86424.80;;;-9.30
74539;BMP180;66042;51.090;-115.340;2023-02-15T11:53:50;86426.80;;;-9.30
74539;BMP180;66042;51.090;-115.340;2023-02-15T11:56:22;86429.40;;;-9.30
74539;BMP180;66042;51.090;-115.340;2023-02-15T11:59:00;86426.40;;;-9.40
74539;BMP180;66042;51.090;-115.340;2023-02-15T12:01:44;86431.40;;;-9.30
74539;BMP180;66042;51.090;-115.340;2023-02-15T12:04:33;86434.00;;;-9.30
74539;BMP180;66042;51.090;-115.340;2023-02-15T12:07:31;86436.20;;;-9.30
74539;BMP180;66042;51.090;-115.340;2023-02-15T12:10:23;86432.00;;;-9.30
74539;BMP180;66042;51.090;-115.340;2023-02-15T12:13:13;86429.20;;;-9.30
74539;BMP180;66042;51.090;-115.340;2023-02-15T12:15:48;86427.40;;;-9.38
74539;BMP180;66042;51.090;-115.340;2023-02-15T12:18:36;86429.60;;;-9.40
74539;BMP180;66042;51.090;-115.340;2023-02-15T12:21:16;86434.40;;;-9.50
74539;BMP180;66042;51.090;-115.340;2023-02-15T12:24:00;86439.20;;;-9.50
74539;BMP180;66042;51.090;-115.340;2023-02-15T12:26:34;86434.60;;;-9.58
74539;BMP180;66042;51.090;-115.340;2023-02-15T12:29:17;86433.20;;;-9.60
74539;BMP180;66042;51.090;-115.340;2023-02-15T12:31:51;86434.60;;;-9.66
74539;BMP180;66042;51.090;-115.340;2023-02-15T12:34:26;86440.60;;;-9.70
74539;BMP180;66042;51.090;-115.340;2023-02-15T12:37:02;86433.20;;;-9.70
74539;BMP180;66042;51.090;-115.340;2023-02-15T12:39:34;86434.20;;;-9.72
74539;BMP180;66042;51.090;-115.340;2023-02-15T12:42:15;86436.60;;;-9.78
74539;BMP180;66042;51.090;-115.340;2023-02-15T12:47:22;86437.00;;;-9.80
74539;BMP180;66042;51.090;-115.340;2023-02-15T12:50:15;86440.20;;;-9.80
74539;BMP180;66042;51.090;-115.340;2023-02-15T12:52:50;86440.00;;;-9.88
74539;BMP180;66042;51.090;-115.340;2023-02-15T12:55:26;86448.60;;;-9.90
74539;BMP180;66042;51.090;-115.340;2023-02-15T12:58:34;86445.00;;;-9.88
74539;BMP180;66042;51.090;-115.340;2023-02-15T13:01:17;86446.60;;;-9.90
74539;BMP180;66042;51.090;-115.340;2023-02-15T13:04:03;86439.80;;;-9.90
74539;BMP180;66042;51.090;-115.340;2023-02-15T13:06:34;86442.60;;;-9.90
74539;BMP180;66042;51.090;-115.340;2023-02-15T13:09:37;86440.80;;;-10.00
74539;BMP180;66042;51.090;-115.340;2023-02-15T13:12:29;86445.20;;;-10.00
74539;BMP180;66042;51.090;-115.340;2023-02-15T13:14:58;86442.40;;;-10.10
74539;BMP180;66042;51.090;-115.340;2023-02-15T13:17:32;86445.80;;;-10.10
74539;BMP180;66042;51.090;-115.340;2023-02-15T13:20:19;86446.60;;;-10.10
74539;BMP180;66042;51.090;-115.340;2023-02-15T13:22:52;86448.20;;;-10.12
74539;BMP180;66042;51.090;-115.340;2023-02-15T13:25:29;86446.80;;;-10.20
74539;BMP180;66042;51.090;-115.340;2023-02-15T13:28:04;86449.60;;;-10.10
74539;BMP180;66042;51.090;-115.340;2023-02-15T13:30:46;86450.40;;;-10.10
74539;BMP180;66042;51.090;-115.340;2023-02-15T13:33:31;86448.40;;;-10.10
74539;BMP180;66042;51.090;-115.340;2023-02-15T13:36:10;86450.40;;;-10.10
74539;BMP180;66042;51.090;-115.340;2023-02-15T13:38:57;86447.40;;;-10.02
74539;BMP180;66042;51.090;-115.340;2023-02-15T13:41:59;86452.80;;;-10.00
74539;BMP180;66042;51.090;-115.340;2023-02-15T13:44:55;86454.20;;;-10.00
74539;BMP180;66042;51.090;-115.340;2023-02-15T13:48:05;86455.60;;;-10.00
74539;BMP180;66042;51.090;-115.340;2023-02-15T13:57:22;86455.00;;;-10.10
74539;BMP180;66042;51.090;-115.340;2023-02-15T14:00:30;86458.40;;;-10.10
74539;BMP180;66042;51.090;-115.340;2023-02-15T14:03:42;86456.40;;;-10.08
74539;BMP180;66042;51.090;-115.340;2023-02-15T14:15:46;86461.40;;;-10.16
74539;BMP180;66042;51.090;-115.340;2023-02-15T14:18:42;86467.00;;;-10.20
74539;BMP180;66042;51.090;-115.340;2023-02-15T14:21:45;86466.00;;;-10.20
74539;BMP180;66042;51.090;-115.340;2023-02-15T14:24:23;86467.20;;;-10.28
74539;BMP180;66042;51.090;-115.340;2023-02-15T14:29:45;86470.40;;;-10.30
74539;BMP180;66042;51.090;-115.340;2023-02-15T14:33:29;86467.40;;;-10.28
74539;BMP180;66042;51.090;-115.340;2023-02-15T14:35:48;86473.20;;;-10.20
74539;BMP180;66042;51.090;-115.340;2023-02-15T14:41:41;86467.20;;;-10.20
74539;BMP180;66042;51.090;-115.340;2023-02-15T14:44:22;86476.40;;;-10.30
74539;BMP180;66042;51.090;-115.340;2023-02-15T14:47:05;86485.60;;;-10.30
74539;BMP180;66042;51.090;-115.340;2023-02-15T14:49:38;86482.60;;;-10.30
74539;BMP180;66042;51.090;-115.340;2023-02-15T14:52:08;86485.80;;;-10.30
74539;BMP180;66042;51.090;-115.340;2023-02-15T15:02:52;86490.40;;;-10.20
74539;BMP180;66042;51.090;-115.340;2023-02-15T15:05:35;86485.40;;;-10.20
74539;BMP180;66042;51.090;-115.340;2023-02-15T15:08:05;86486.20;;;-10.20
74539;BMP180;66042;51.090;-115.340;2023-02-15T15:10:45;86483.20;;;-10.20
74539;BMP180;66042;51.090;-115.340;2023-02-15T15:19:09;86489.20;;;-10.10
74539;BMP180;66042;51.090;-115.340;2023-02-15T15:36:10;86488.20;;;-9.90
74539;BMP180;66042;51.090;-115.340;2023-02-15T15:42:43;86494.20;;;-9.90
74539;BMP180;66042;51.090;-115.340;2023-02-15T15:45:53;86486.80;;;-9.80
74539;BMP180;66042;51.090;-115.340;2023-02-15T15:50:53;86496.20;;;-9.88
74539;BMP180;66042;51.090;-115.340;2023-02-15T15:53:27;86501.80;;;-9.80
74539;BMP180;66042;51.090;-115.340;2023-02-15T15:56:08;86500.80;;;-9.80
74539;BMP180;66042;51.090;-115.340;2023-02-15T15:58:52;86501.60;;;-9.70
74539;BMP180;66042;51.090;-115.340;2023-02-15T16:01:35;86501.20;;;-9.70
74539;BMP180;66042;51.090;-115.340;2023-02-15T16:04:04;86508.80;;;-9.62
74539;BMP180;66042;51.090;-115.340;2023-02-15T16:06:38;86503.40;;;-9.60
74539;BMP180;66042;51.090;-115.340;2023-02-15T16:09:20;86501.60;;;-9.50
74539;BMP180;66042;51.090;-115.340;2023-02-15T16:11:57;86506.60;;;-9.50
74539;BMP180;66042;51.090;-115.340;2023-02-15T16:14:38;86502.40;;;-9.50
74539;BMP180;66042;51.090;-115.340;2023-02-15T16:17:13;86503.80;;;-9.48
74539;BMP180;66042;51.090;-115.340;2023-02-15T16:19:44;86497.60;;;-9.40
74539;BMP180;66042;51.090;-115.340;2023-02-15T16:22:26;86502.00;;;-9.40
74539;BMP180;66042;51.090;-115.340;2023-02-15T16:25:35;86494.40;;;-9.40
74539;BMP180;66042;51.090;-115.340;2023-02-15T16:28:10;86491.60;;;-9.40
74539;BMP180;66042;51.090;-115.340;2023-02-15T16:30:39;86496.80;;;-9.34
74539;BMP180;66042;51.090;-115.340;2023-02-15T16:33:14;86497.80;;;-9.30
74539;BMP180;66042;51.090;-115.340;2023-02-15T16:35:59;86496.00;;;-9.30
74539;BMP180;66042;51.090;-115.340;2023-02-15T16:38:55;86499.40;;;-9.30
74539;BMP180;66042;51.090;-115.340;2023-02-15T16:41:31;86496.00;;;-9.22
74539;BMP180;66042;51.090;-115.340;2023-02-15T16:44:18;86489.20;;;-9.20